sensor_id;sensor_type;location;lat;lon;timestamp;temperature;humidity
8214;DHT22;4148;47.974;7.824;2023-05-07T00:00:46;13.10;99.90
8214;DHT22;4148;47.974;7.824;2023-05-07T00:03:14;13.10;99.90
8214;DHT22;4148;47.974;7.824;2023-05-07T00:05:42;13.00;99.90
8214;DHT22;4148;47.974;7.824;2023-05-07T00:08:10;13.00;99.90
8214;DHT22;4148;47.974;7.824;2023-05-07T00:10:38;13.00;99.90
8214;DHT22;4148;47.974;7.824;2023-05-07T00:13:08;13.00;99.90
8214;DHT22;4148;47.974;7.824;2023-05-07T00:15:35;12.90;99.90
8214;DHT22;4148;47.974;7.824;2023-05-07T00:18:03;12.90;99.90
8214;DHT22;4148;47.974;7.824;2023-05-07T00:20:31;12.90;99.90
8214;DHT22;4148;47.974;7.824;2023-05-07T00:23:01;12.80;99.90
8214;DHT22;4148;47.974;7.824;2023-05-07T00:25:29;12.90;99.90
8214;DHT22;4148;47.974;7.824;2023-05-07T00:27:57;12.80;99.90
8214;DHT22;4148;47.974;7.824;2023-05-07T00:30:31;12.80;99.90
8214;DHT22;4148;47.974;7.824;2023-05-07T00:32:59;12.90;99.90
8214;DHT22;4148;47.974;7.824;2023-05-07T00:35:28;13.10;99.90
8214;DHT22;4148;47.974;7.824;2023-05-07T00:37:56;13.10;99.90
8214;DHT22;4148;47.974;7.824;2023-05-07T00:40:23;13.00;99.90
8214;DHT22;4148;47.974;7.824;2023-05-07T00:42:51;13.00;99.90
8214;DHT22;4148;47.974;7.824;2023-05-07T00:45:26;12.90;99.90
8214;DHT22;4148;47.974;7.824;2023-05-07T00:47:58;12.90;99.90
8214;DHT22;4148;47.974;7.824;2023-05-07T00:50:27;12.90;99.90
8214;DHT22;4148;47.974;7.824;2023-05-07T00:52:56;13.10;99.90
8214;DHT22;4148;47.974;7.824;2023-05-07T00:55:24;13.10;99.90
8214;DHT22;4148;47.974;7.824;2023-05-07T00:57:52;13.20;99.90
8214;DHT22;4148;47.974;7.824;2023-05-07T01:00:19;13.20;99.90
8214;DHT22;4148;47.974;7.824;2023-05-07T01:02:47;13.00;99.90
8214;DHT22;4148;47.974;7.824;2023-05-07T01:05:18;12.80;99.90
8214;DHT22;4148;47.974;7.824;2023-05-07T01:07:47;12.80;99.90
8214;DHT22;4148;47.974;7.824;2023-05-07T01:10:16;12.90;99.90
8214;DHT22;4148;47.974;7.824;2023-05-07T01:12:45;12.90;99.90
8214;DHT22;4148;47.974;7.824;2023-05-07T01:15:14;12.90;99.90
8214;DHT22;4148;47.974;7.824;2023-05-07T01:17:42;12.90;99.90
8214;DHT22;4148;47.974;7.824;2023-05-07T01:20:11;13.00;99.90
8214;DHT22;4148;47.974;7.824;2023-05-07T01:22:41;13.10;99.90
8214;DHT22;4148;47.974;7.824;2023-05-07T01:25:10;13.10;99.90
8214;DHT22;4148;47.974;7.824;2023-05-07T01:27:38;13.10;99.90
8214;DHT22;4148;47.974;7.824;2023-05-07T01:30:07;12.90;99.90
8214;DHT22;4148;47.974;7.824;2023-05-07T01:32:39;12.80;99.90
8214;DHT22;4148;47.974;7.824;2023-05-07T01:35:11;12.70;99.90
8214;DHT22;4148;47.974;7.824;2023-05-07T01:37:41;12.80;99.90
8214;DHT22;4148;47.974;7.824;2023-05-07T01:40:09;12.80;99.90
8214;DHT22;4148;47.974;7.824;2023-05-07T01:42:38;12.90;99.90
8214;DHT22;4148;47.974;7.824;2023-05-07T01:45:07;12.90;99.90
8214;DHT22;4148;47.974;7.824;2023-05-07T01:47:36;12.80;99.90
8214;DHT22;4148;47.974;7.824;2023-05-07T01:50:06;12.70;99.90
8214;DHT22;4148;47.974;7.824;2023-05-07T01:52:36;12.60;99.90
8214;DHT22;4148;47.974;7.824;2023-05-07T01:55:07;12.50;99.90
8214;DHT22;4148;47.974;7.824;2023-05-07T01:57:35;12.50;99.90
8214;DHT22;4148;47.974;7.824;2023-05-07T02:00:03;12.50;99.90
8214;DHT22;4148;47.974;7.824;2023-05-07T02:02:31;12.50;99.90
8214;DHT22;4148;47.974;7.824;2023-05-07T02:04:59;12.40;99.90
8214;DHT22;4148;47.974;7.824;2023-05-07T02:07:28;12.40;99.90
8214;DHT22;4148;47.974;7.824;2023-05-07T02:09:56;12.40;99.90
8214;DHT22;4148;47.974;7.824;2023-05-07T02:12:25;12.50;99.90
8214;DHT22;4148;47.974;7.824;2023-05-07T02:14:53;12.30;99.90
8214;DHT22;4148;47.974;7.824;2023-05-07T02:17:21;12.20;99.90
8214;DHT22;4148;47.974;7.824;2023-05-07T02:19:49;12.10;99.90
8214;DHT22;4148;47.974;7.824;2023-05-07T02:22:16;12.10;99.90
8214;DHT22;4148;47.974;7.824;2023-05-07T02:24:44;12.00;99.90
8214;DHT22;4148;47.974;7.824;2023-05-07T02:27:12;12.00;99.90
8214;DHT22;4148;47.974;7.824;2023-05-07T02:29:41;11.90;99.90
8214;DHT22;4148;47.974;7.824;2023-05-07T02:32:09;11.90;99.90
8214;DHT22;4148;47.974;7.824;2023-05-07T02:34:37;11.90;99.90
8214;DHT22;4148;47.974;7.824;2023-05-07T02:37:05;11.90;99.90
8214;DHT22;4148;47.974;7.824;2023-05-07T02:39:33;11.90;99.90
8214;DHT22;4148;47.974;7.824;2023-05-07T02:42:01;11.80;99.90
8214;DHT22;4148;47.974;7.824;2023-05-07T02:44:29;11.80;99.90
8214;DHT22;4148;47.974;7.824;2023-05-07T02:46:59;11.80;99.90
8214;DHT22;4148;47.974;7.824;2023-05-07T02:49:27;12.00;99.90
8214;DHT22;4148;47.974;7.824;2023-05-07T02:51:55;12.00;99.90
8214;DHT22;4148;47.974;7.824;2023-05-07T02:54:22;12.10;99.90
8214;DHT22;4148;47.974;7.824;2023-05-07T02:56:50;12.10;99.90
8214;DHT22;4148;47.974;7.824;2023-05-07T02:59:18;12.10;99.90
8214;DHT22;4148;47.974;7.824;2023-05-07T03:01:46;12.00;99.90
8214;DHT22;4148;47.974;7.824;2023-05-07T03:04:16;12.00;99.90
8214;DHT22;4148;47.974;7.824;2023-05-07T03:06:44;12.00;99.90
8214;DHT22;4148;47.974;7.824;2023-05-07T03:09:12;12.10;99.90
8214;DHT22;4148;47.974;7.824;2023-05-07T03:11:39;12.30;99.90
8214;DHT22;4148;47.974;7.824;2023-05-07T03:14:07;12.20;99.90
8214;DHT22;4148;47.974;7.824;2023-05-07T03:16:35;12.20;99.90
8214;DHT22;4148;47.974;7.824;2023-05-07T03:19:03;12.10;99.90
8214;DHT22;4148;47.974;7.824;2023-05-07T03:21:32;12.20;99.90
8214;DHT22;4148;47.974;7.824;2023-05-07T03:24:01;12.30;99.90
8214;DHT22;4148;47.974;7.824;2023-05-07T03:26:28;12.10;99.90
8214;DHT22;4148;47.974;7.824;2023-05-07T03:28:56;12.10;99.90
8214;DHT22;4148;47.974;7.824;2023-05-07T03:31:24;12.00;99.90
8214;DHT22;4148;47.974;7.824;2023-05-07T03:33:53;11.80;99.90
8214;DHT22;4148;47.974;7.824;2023-05-07T03:36:22;11.80;99.90
8214;DHT22;4148;47.974;7.824;2023-05-07T03:38:52;11.70;99.90
8214;DHT22;4148;47.974;7.824;2023-05-07T03:41:19;11.70;99.90
8214;DHT22;4148;47.974;7.824;2023-05-07T03:43:48;11.70;99.90
8214;DHT22;4148;47.974;7.824;2023-05-07T03:46:15;11.70;99.90
8214;DHT22;4148;47.974;7.824;2023-05-07T03:48:43;11.80;99.90
8214;DHT22;4148;47.974;7.824;2023-05-07T03:51:11;11.70;99.90
8214;DHT22;4148;47.974;7.824;2023-05-07T03:53:39;11.80;99.90
8214;DHT22;4148;47.974;7.824;2023-05-07T03:56:08;11.70;99.90
8214;DHT22;4148;47.974;7.824;2023-05-07T03:58:36;11.80;99.90
8214;DHT22;4148;47.974;7.824;2023-05-07T04:01:04;11.90;99.90
8214;DHT22;4148;47.974;7.824;2023-05-07T04:03:31;11.90;99.90
8214;DHT22;4148;47.974;7.824;2023-05-07T04:06:00;12.00;99.90
8214;DHT22;4148;47.974;7.824;2023-05-07T04:08:28;12.00;99.90
8214;DHT22;4148;47.974;7.824;2023-05-07T04:10:56;11.90;99.90
8214;DHT22;4148;47.974;7.824;2023-05-07T04:13:25;11.90;99.90
8214;DHT22;4148;47.974;7.824;2023-05-07T04:15:55;11.80;99.90
8214;DHT22;4148;47.974;7.824;2023-05-07T04:18:23;11.90;99.90
8214;DHT22;4148;47.974;7.824;2023-05-07T04:20:51;11.90;99.90
8214;DHT22;4148;47.974;7.824;2023-05-07T04:23:18;11.90;99.90
8214;DHT22;4148;47.974;7.824;2023-05-07T04:25:46;11.90;99.90
8214;DHT22;4148;47.974;7.824;2023-05-07T04:28:14;12.00;99.90
8214;DHT22;4148;47.974;7.824;2023-05-07T04:30:43;11.90;99.90
8214;DHT22;4148;47.974;7.824;2023-05-07T04:33:11;11.90;99.90
8214;DHT22;4148;47.974;7.824;2023-05-07T04:35:39;11.90;99.90
8214;DHT22;4148;47.974;7.824;2023-05-07T04:38:07;12.00;99.90
8214;DHT22;4148;47.974;7.824;2023-05-07T04:40:35;12.00;99.90
8214;DHT22;4148;47.974;7.824;2023-05-07T04:43:03;12.00;99.90
8214;DHT22;4148;47.974;7.824;2023-05-07T04:45:32;12.10;99.90
8214;DHT22;4148;47.974;7.824;2023-05-07T04:48:01;12.00;99.90
8214;DHT22;4148;47.974;7.824;2023-05-07T04:50:29;12.00;99.90
8214;DHT22;4148;47.974;7.824;2023-05-07T04:52:57;12.10;99.90
8214;DHT22;4148;47.974;7.824;2023-05-07T04:55:25;12.20;99.90
8214;DHT22;4148;47.974;7.824;2023-05-07T04:57:53;12.10;99.90
8214;DHT22;4148;47.974;7.824;2023-05-07T05:00:21;12.20;99.90
8214;DHT22;4148;47.974;7.824;2023-05-07T05:02:49;12.30;99.90
8214;DHT22;4148;47.974;7.824;2023-05-07T05:05:19;12.30;99.90
8214;DHT22;4148;47.974;7.824;2023-05-07T05:07:47;12.50;99.90
8214;DHT22;4148;47.974;7.824;2023-05-07T05:10:14;12.50;99.90
8214;DHT22;4148;47.974;7.824;2023-05-07T05:12:42;12.50;99.90
8214;DHT22;4148;47.974;7.824;2023-05-07T05:15:11;12.50;99.90
8214;DHT22;4148;47.974;7.824;2023-05-07T05:17:39;12.50;99.90
8214;DHT22;4148;47.974;7.824;2023-05-07T05:20:07;12.60;99.90
8214;DHT22;4148;47.974;7.824;2023-05-07T05:22:39;12.70;99.90
8214;DHT22;4148;47.974;7.824;2023-05-07T05:25:07;12.80;99.90
8214;DHT22;4148;47.974;7.824;2023-05-07T05:27:35;12.90;99.90
8214;DHT22;4148;47.974;7.824;2023-05-07T05:30:03;13.10;99.90
8214;DHT22;4148;47.974;7.824;2023-05-07T05:32:32;13.10;99.90
8214;DHT22;4148;47.974;7.824;2023-05-07T05:35:00;13.10;99.90
8214;DHT22;4148;47.974;7.824;2023-05-07T05:37:28;13.30;99.90
8214;DHT22;4148;47.974;7.824;2023-05-07T05:39:58;13.30;99.90
8214;DHT22;4148;47.974;7.824;2023-05-07T05:42:25;13.40;99.90
8214;DHT22;4148;47.974;7.824;2023-05-07T05:44:53;13.40;99.90
8214;DHT22;4148;47.974;7.824;2023-05-07T05:47:22;13.50;99.90
8214;DHT22;4148;47.974;7.824;2023-05-07T05:49:50;13.60;99.90
8214;DHT22;4148;47.974;7.824;2023-05-07T05:52:17;13.70;99.90
8214;DHT22;4148;47.974;7.824;2023-05-07T05:54:46;13.80;99.90
8214;DHT22;4148;47.974;7.824;2023-05-07T05:57:15;13.90;99.90
8214;DHT22;4148;47.974;7.824;2023-05-07T05:59:43;14.00;99.90
8214;DHT22;4148;47.974;7.824;2023-05-07T06:02:11;14.10;99.90
8214;DHT22;4148;47.974;7.824;2023-05-07T06:04:39;14.20;99.90
8214;DHT22;4148;47.974;7.824;2023-05-07T06:07:09;14.20;99.90
8214;DHT22;4148;47.974;7.824;2023-05-07T06:09:37;14.30;99.90
8214;DHT22;4148;47.974;7.824;2023-05-07T06:12:05;14.30;99.90
8214;DHT22;4148;47.974;7.824;2023-05-07T06:14:34;14.40;99.90
8214;DHT22;4148;47.974;7.824;2023-05-07T06:17:02;14.50;99.90
8214;DHT22;4148;47.974;7.824;2023-05-07T06:19:30;14.60;99.90
8214;DHT22;4148;47.974;7.824;2023-05-07T06:21:58;14.70;99.90
8214;DHT22;4148;47.974;7.824;2023-05-07T06:24:28;14.80;99.90
8214;DHT22;4148;47.974;7.824;2023-05-07T06:26:56;15.00;99.90
8214;DHT22;4148;47.974;7.824;2023-05-07T06:29:25;15.10;99.90
8214;DHT22;4148;47.974;7.824;2023-05-07T06:31:54;15.20;99.90
8214;DHT22;4148;47.974;7.824;2023-05-07T06:34:22;15.30;99.90
8214;DHT22;4148;47.974;7.824;2023-05-07T06:36:50;15.30;99.90
8214;DHT22;4148;47.974;7.824;2023-05-07T06:39:18;15.30;99.90
8214;DHT22;4148;47.974;7.824;2023-05-07T06:41:45;15.30;99.90
8214;DHT22;4148;47.974;7.824;2023-05-07T06:44:13;15.40;99.90
8214;DHT22;4148;47.974;7.824;2023-05-07T06:46:41;15.40;99.90
8214;DHT22;4148;47.974;7.824;2023-05-07T06:49:11;15.40;99.90
8214;DHT22;4148;47.974;7.824;2023-05-07T06:51:39;15.60;99.90
8214;DHT22;4148;47.974;7.824;2023-05-07T06:54:07;15.70;99.90
8214;DHT22;4148;47.974;7.824;2023-05-07T06:56:35;15.80;99.90
8214;DHT22;4148;47.974;7.824;2023-05-07T06:59:03;16.00;99.90
8214;DHT22;4148;47.974;7.824;2023-05-07T07:01:31;16.00;99.90
8214;DHT22;4148;47.974;7.824;2023-05-07T07:03:59;16.10;99.90
8214;DHT22;4148;47.974;7.824;2023-05-07T07:06:28;16.20;99.90
8214;DHT22;4148;47.974;7.824;2023-05-07T07:08:58;16.30;99.90
8214;DHT22;4148;47.974;7.824;2023-05-07T07:11:26;16.40;99.90
8214;DHT22;4148;47.974;7.824;2023-05-07T07:13:54;16.60;99.90
8214;DHT22;4148;47.974;7.824;2023-05-07T07:16:22;16.70;99.90
8214;DHT22;4148;47.974;7.824;2023-05-07T07:18:50;16.80;99.90
8214;DHT22;4148;47.974;7.824;2023-05-07T07:21:18;17.00;99.90
8214;DHT22;4148;47.974;7.824;2023-05-07T07:23:47;17.10;99.90
8214;DHT22;4148;47.974;7.824;2023-05-07T07:26:15;17.20;99.90
8214;DHT22;4148;47.974;7.824;2023-05-07T07:28:43;17.40;99.90
8214;DHT22;4148;47.974;7.824;2023-05-07T07:31:11;17.60;99.90
8214;DHT22;4148;47.974;7.824;2023-05-07T07:33:40;17.60;99.90
8214;DHT22;4148;47.974;7.824;2023-05-07T07:36:08;17.70;99.90
8214;DHT22;4148;47.974;7.824;2023-05-07T07:38:35;17.90;99.90
8214;DHT22;4148;47.974;7.824;2023-05-07T07:41:05;18.00;99.90
8214;DHT22;4148;47.974;7.824;2023-05-07T07:43:32;18.10;99.90
8214;DHT22;4148;47.974;7.824;2023-05-07T07:46:00;18.00;99.90
8214;DHT22;4148;47.974;7.824;2023-05-07T07:48:28;18.20;99.90
8214;DHT22;4148;47.974;7.824;2023-05-07T07:50:56;18.30;99.90
8214;DHT22;4148;47.974;7.824;2023-05-07T07:53:24;18.50;99.90
8214;DHT22;4148;47.974;7.824;2023-05-07T07:55:52;18.80;99.90
8214;DHT22;4148;47.974;7.824;2023-05-07T07:58:26;19.00;99.90
8214;DHT22;4148;47.974;7.824;2023-05-07T08:00:54;19.20;99.90
8214;DHT22;4148;47.974;7.824;2023-05-07T08:03:23;19.40;99.90
8214;DHT22;4148;47.974;7.824;2023-05-07T08:05:51;19.70;99.90
8214;DHT22;4148;47.974;7.824;2023-05-07T08:08:18;19.90;99.90
8214;DHT22;4148;47.974;7.824;2023-05-07T08:10:46;20.00;99.90
8214;DHT22;4148;47.974;7.824;2023-05-07T08:13:17;20.20;99.90
8214;DHT22;4148;47.974;7.824;2023-05-07T08:15:46;20.30;99.90
8214;DHT22;4148;47.974;7.824;2023-05-07T08:18:14;20.60;99.90
8214;DHT22;4148;47.974;7.824;2023-05-07T08:20:42;20.90;99.90
8214;DHT22;4148;47.974;7.824;2023-05-07T08:23:09;21.20;99.90
8214;DHT22;4148;47.974;7.824;2023-05-07T08:25:37;21.40;99.90
8214;DHT22;4148;47.974;7.824;2023-05-07T08:28:05;21.50;99.90
8214;DHT22;4148;47.974;7.824;2023-05-07T08:30:35;21.50;99.90
8214;DHT22;4148;47.974;7.824;2023-05-07T08:33:04;21.40;99.90
8214;DHT22;4148;47.974;7.824;2023-05-07T08:35:32;21.30;99.90
8214;DHT22;4148;47.974;7.824;2023-05-07T08:38:00;21.30;99.90
8214;DHT22;4148;47.974;7.824;2023-05-07T08:40:28;21.30;99.90
8214;DHT22;4148;47.974;7.824;2023-05-07T08:42:57;21.40;99.90
8214;DHT22;4148;47.974;7.824;2023-05-07T08:45:26;21.60;99.90
8214;DHT22;4148;47.974;7.824;2023-05-07T08:47:59;21.70;99.90
8214;DHT22;4148;47.974;7.824;2023-05-07T08:50:28;21.60;99.90
8214;DHT22;4148;47.974;7.824;2023-05-07T08:52:56;21.70;99.90
8214;DHT22;4148;47.974;7.824;2023-05-07T08:55:24;21.90;99.90
8214;DHT22;4148;47.974;7.824;2023-05-07T08:57:52;22.20;99.90
8214;DHT22;4148;47.974;7.824;2023-05-07T09:00:20;22.50;99.90
8214;DHT22;4148;47.974;7.824;2023-05-07T09:02:48;22.80;99.90
8214;DHT22;4148;47.974;7.824;2023-05-07T09:05:16;23.10;99.90
8214;DHT22;4148;47.974;7.824;2023-05-07T09:07:45;23.00;99.90
8214;DHT22;4148;47.974;7.824;2023-05-07T09:10:13;23.10;99.90
8214;DHT22;4148;47.974;7.824;2023-05-07T09:12:41;23.30;99.90
8214;DHT22;4148;47.974;7.824;2023-05-07T09:15:10;23.40;99.90
8214;DHT22;4148;47.974;7.824;2023-05-07T09:17:39;23.40;99.90
8214;DHT22;4148;47.974;7.824;2023-05-07T09:20:08;23.50;99.90
8214;DHT22;4148;47.974;7.824;2023-05-07T09:22:37;23.70;99.90
8214;DHT22;4148;47.974;7.824;2023-05-07T09:25:07;23.70;99.90
8214;DHT22;4148;47.974;7.824;2023-05-07T09:27:36;23.70;99.90
8214;DHT22;4148;47.974;7.824;2023-05-07T09:30:05;23.70;99.90
8214;DHT22;4148;47.974;7.824;2023-05-07T09:32:35;23.50;99.90
8214;DHT22;4148;47.974;7.824;2023-05-07T09:35:03;23.50;99.90
8214;DHT22;4148;47.974;7.824;2023-05-07T09:37:31;23.40;99.90
8214;DHT22;4148;47.974;7.824;2023-05-07T09:39:59;23.20;99.90
8214;DHT22;4148;47.974;7.824;2023-05-07T09:42:29;23.20;99.90
8214;DHT22;4148;47.974;7.824;2023-05-07T09:44:57;23.20;99.90
8214;DHT22;4148;47.974;7.824;2023-05-07T09:47:28;23.20;99.90
8214;DHT22;4148;47.974;7.824;2023-05-07T09:49:59;23.10;99.90
8214;DHT22;4148;47.974;7.824;2023-05-07T09:52:32;23.00;99.90
8214;DHT22;4148;47.974;7.824;2023-05-07T09:55:02;22.80;99.90
8214;DHT22;4148;47.974;7.824;2023-05-07T09:57:34;22.60;99.90
8214;DHT22;4148;47.974;7.824;2023-05-07T10:00:03;22.30;99.90
8214;DHT22;4148;47.974;7.824;2023-05-07T10:02:33;21.80;99.90
8214;DHT22;4148;47.974;7.824;2023-05-07T10:05:03;21.40;99.90
8214;DHT22;4148;47.974;7.824;2023-05-07T10:07:31;21.20;99.90
8214;DHT22;4148;47.974;7.824;2023-05-07T10:10:00;21.00;99.90
8214;DHT22;4148;47.974;7.824;2023-05-07T10:12:29;20.80;99.90
8214;DHT22;4148;47.974;7.824;2023-05-07T10:15:07;20.60;99.90
8214;DHT22;4148;47.974;7.824;2023-05-07T10:17:35;20.20;99.90
8214;DHT22;4148;47.974;7.824;2023-05-07T10:20:04;19.90;99.90
8214;DHT22;4148;47.974;7.824;2023-05-07T10:22:38;19.60;99.90
8214;DHT22;4148;47.974;7.824;2023-05-07T10:25:12;19.30;99.90
8214;DHT22;4148;47.974;7.824;2023-05-07T10:27:42;18.90;99.90
8214;DHT22;4148;47.974;7.824;2023-05-07T10:30:24;18.60;99.90
8214;DHT22;4148;47.974;7.824;2023-05-07T10:32:55;18.40;99.90
8214;DHT22;4148;47.974;7.824;2023-05-07T10:35:26;18.40;99.90
8214;DHT22;4148;47.974;7.824;2023-05-07T10:37:57;18.10;99.90
8214;DHT22;4148;47.974;7.824;2023-05-07T10:40:25;18.00;99.90
8214;DHT22;4148;47.974;7.824;2023-05-07T10:42:57;17.80;99.90
8214;DHT22;4148;47.974;7.824;2023-05-07T10:45:28;17.80;99.90
8214;DHT22;4148;47.974;7.824;2023-05-07T10:48:10;17.70;99.90
8214;DHT22;4148;47.974;7.824;2023-05-07T10:50:42;17.90;99.90
8214;DHT22;4148;47.974;7.824;2023-05-07T10:53:23;18.10;99.90
8214;DHT22;4148;47.974;7.824;2023-05-07T10:59:35;18.30;99.90
8214;DHT22;4148;47.974;7.824;2023-05-07T11:02:10;18.40;99.90
8214;DHT22;4148;47.974;7.824;2023-05-07T11:04:40;18.40;99.90
8214;DHT22;4148;47.974;7.824;2023-05-07T11:07:24;18.40;99.90
8214;DHT22;4148;47.974;7.824;2023-05-07T11:10:00;18.80;99.90
8214;DHT22;4148;47.974;7.824;2023-05-07T11:12:50;19.00;99.90
8214;DHT22;4148;47.974;7.824;2023-05-07T11:15:36;19.30;99.90
8214;DHT22;4148;47.974;7.824;2023-05-07T11:18:06;19.70;99.90
8214;DHT22;4148;47.974;7.824;2023-05-07T11:20:54;20.20;99.90
8214;DHT22;4148;47.974;7.824;2023-05-07T11:23:56;20.40;99.90
8214;DHT22;4148;47.974;7.824;2023-05-07T11:26:26;20.60;99.90
8214;DHT22;4148;47.974;7.824;2023-05-07T11:28:54;20.70;99.90
8214;DHT22;4148;47.974;7.824;2023-05-07T11:31:24;20.80;99.90
8214;DHT22;4148;47.974;7.824;2023-05-07T11:33:55;20.80;99.90
8214;DHT22;4148;47.974;7.824;2023-05-07T11:36:23;21.10;99.90
8214;DHT22;4148;47.974;7.824;2023-05-07T11:38:52;21.40;99.90
8214;DHT22;4148;47.974;7.824;2023-05-07T11:41:20;21.50;99.90
8214;DHT22;4148;47.974;7.824;2023-05-07T11:43:56;21.40;99.90
8214;DHT22;4148;47.974;7.824;2023-05-07T11:46:24;21.30;99.90
8214;DHT22;4148;47.974;7.824;2023-05-07T11:48:54;21.30;99.90
8214;DHT22;4148;47.974;7.824;2023-05-07T11:51:23;21.30;99.90
8214;DHT22;4148;47.974;7.824;2023-05-07T11:53:53;21.10;99.90
8214;DHT22;4148;47.974;7.824;2023-05-07T11:56:21;20.80;99.90
8214;DHT22;4148;47.974;7.824;2023-05-07T11:58:49;20.70;99.90
8214;DHT22;4148;47.974;7.824;2023-05-07T12:01:18;20.50;99.90
8214;DHT22;4148;47.974;7.824;2023-05-07T12:03:46;20.40;99.90
8214;DHT22;4148;47.974;7.824;2023-05-07T12:06:16;20.30;99.90
8214;DHT22;4148;47.974;7.824;2023-05-07T12:08:45;20.40;99.90
8214;DHT22;4148;47.974;7.824;2023-05-07T12:11:15;20.50;99.90
8214;DHT22;4148;47.974;7.824;2023-05-07T12:13:44;20.50;99.90
8214;DHT22;4148;47.974;7.824;2023-05-07T12:16:12;20.40;99.90
8214;DHT22;4148;47.974;7.824;2023-05-07T12:18:40;20.70;99.90
8214;DHT22;4148;47.974;7.824;2023-05-07T12:21:08;20.80;99.90
8214;DHT22;4148;47.974;7.824;2023-05-07T12:23:39;20.90;99.90
8214;DHT22;4148;47.974;7.824;2023-05-07T12:26:08;21.10;99.90
8214;DHT22;4148;47.974;7.824;2023-05-07T12:28:37;21.30;99.90
8214;DHT22;4148;47.974;7.824;2023-05-07T12:31:06;21.30;99.90
8214;DHT22;4148;47.974;7.824;2023-05-07T12:33:35;21.40;99.90
8214;DHT22;4148;47.974;7.824;2023-05-07T12:36:05;21.30;99.90
8214;DHT22;4148;47.974;7.824;2023-05-07T12:38:39;21.30;99.90
8214;DHT22;4148;47.974;7.824;2023-05-07T12:41:08;21.10;99.90
8214;DHT22;4148;47.974;7.824;2023-05-07T12:43:37;21.00;99.90
8214;DHT22;4148;47.974;7.824;2023-05-07T12:46:06;20.80;99.90
8214;DHT22;4148;47.974;7.824;2023-05-07T12:48:37;20.80;99.90
8214;DHT22;4148;47.974;7.824;2023-05-07T12:51:05;20.60;99.90
8214;DHT22;4148;47.974;7.824;2023-05-07T12:53:41;20.60;99.90
8214;DHT22;4148;47.974;7.824;2023-05-07T12:56:10;20.50;99.90
8214;DHT22;4148;47.974;7.824;2023-05-07T12:58:38;20.50;99.90
8214;DHT22;4148;47.974;7.824;2023-05-07T13:01:07;20.40;99.90
8214;DHT22;4148;47.974;7.824;2023-05-07T13:03:37;20.50;99.90
8214;DHT22;4148;47.974;7.824;2023-05-07T13:06:07;20.50;99.90
8214;DHT22;4148;47.974;7.824;2023-05-07T13:08:37;20.50;99.90
8214;DHT22;4148;47.974;7.824;2023-05-07T13:11:09;20.50;99.90
8214;DHT22;4148;47.974;7.824;2023-05-07T13:13:38;20.50;99.90
8214;DHT22;4148;47.974;7.824;2023-05-07T13:16:09;20.40;99.90
8214;DHT22;4148;47.974;7.824;2023-05-07T13:18:38;20.40;99.90
8214;DHT22;4148;47.974;7.824;2023-05-07T13:21:07;20.40;99.90
8214;DHT22;4148;47.974;7.824;2023-05-07T13:23:35;20.30;99.90
8214;DHT22;4148;47.974;7.824;2023-05-07T13:26:04;20.30;99.90
8214;DHT22;4148;47.974;7.824;2023-05-07T13:28:53;20.30;99.90
8214;DHT22;4148;47.974;7.824;2023-05-07T13:31:21;20.30;99.90
8214;DHT22;4148;47.974;7.824;2023-05-07T13:33:49;20.20;99.90
8214;DHT22;4148;47.974;7.824;2023-05-07T13:36:17;20.20;99.90
8214;DHT22;4148;47.974;7.824;2023-05-07T13:38:44;20.40;99.90
8214;DHT22;4148;47.974;7.824;2023-05-07T13:41:13;20.40;99.90
8214;DHT22;4148;47.974;7.824;2023-05-07T13:43:41;20.40;99.90
8214;DHT22;4148;47.974;7.824;2023-05-07T13:46:10;20.40;99.90
8214;DHT22;4148;47.974;7.824;2023-05-07T13:48:38;20.50;99.90
8214;DHT22;4148;47.974;7.824;2023-05-07T13:51:06;20.60;99.90
8214;DHT22;4148;47.974;7.824;2023-05-07T13:53:34;20.60;99.90
8214;DHT22;4148;47.974;7.824;2023-05-07T13:56:02;20.70;99.90
8214;DHT22;4148;47.974;7.824;2023-05-07T13:58:31;20.70;99.90
8214;DHT22;4148;47.974;7.824;2023-05-07T14:00:59;20.70;99.90
8214;DHT22;4148;47.974;7.824;2023-05-07T14:03:28;20.70;99.90
8214;DHT22;4148;47.974;7.824;2023-05-07T14:05:58;20.60;99.90
8214;DHT22;4148;47.974;7.824;2023-05-07T14:08:26;20.60;99.90
8214;DHT22;4148;47.974;7.824;2023-05-07T14:10:57;20.50;99.90
8214;DHT22;4148;47.974;7.824;2023-05-07T14:13:25;20.50;99.90
8214;DHT22;4148;47.974;7.824;2023-05-07T14:15:54;20.50;99.90
8214;DHT22;4148;47.974;7.824;2023-05-07T14:18:22;20.60;99.90
8214;DHT22;4148;47.974;7.824;2023-05-07T14:20:51;20.50;99.90
8214;DHT22;4148;47.974;7.824;2023-05-07T14:23:19;20.60;99.90
8214;DHT22;4148;47.974;7.824;2023-05-07T14:25:53;20.70;99.90
8214;DHT22;4148;47.974;7.824;2023-05-07T14:28:21;20.70;99.90
8214;DHT22;4148;47.974;7.824;2023-05-07T14:30:49;20.80;99.90
8214;DHT22;4148;47.974;7.824;2023-05-07T14:33:17;20.90;99.90
8214;DHT22;4148;47.974;7.824;2023-05-07T14:35:45;20.80;99.90
8214;DHT22;4148;47.974;7.824;2023-05-07T14:38:16;20.80;99.90
8214;DHT22;4148;47.974;7.824;2023-05-07T14:40:45;20.80;99.90
8214;DHT22;4148;47.974;7.824;2023-05-07T14:43:12;20.80;99.90
8214;DHT22;4148;47.974;7.824;2023-05-07T14:45:41;20.80;99.90
8214;DHT22;4148;47.974;7.824;2023-05-07T14:48:08;20.80;99.90
8214;DHT22;4148;47.974;7.824;2023-05-07T14:50:41;20.70;99.90
8214;DHT22;4148;47.974;7.824;2023-05-07T14:53:09;20.80;99.90
8214;DHT22;4148;47.974;7.824;2023-05-07T14:55:38;20.90;99.90
8214;DHT22;4148;47.974;7.824;2023-05-07T14:58:06;20.80;99.90
8214;DHT22;4148;47.974;7.824;2023-05-07T15:00:34;20.80;99.90
8214;DHT22;4148;47.974;7.824;2023-05-07T15:03:05;20.90;99.90
8214;DHT22;4148;47.974;7.824;2023-05-07T15:05:35;20.90;99.90
8214;DHT22;4148;47.974;7.824;2023-05-07T15:08:03;20.80;99.90
8214;DHT22;4148;47.974;7.824;2023-05-07T15:10:34;20.70;99.90
8214;DHT22;4148;47.974;7.824;2023-05-07T15:13:08;20.70;99.90
8214;DHT22;4148;47.974;7.824;2023-05-07T15:15:40;20.50;99.90
8214;DHT22;4148;47.974;7.824;2023-05-07T15:18:09;20.50;99.90
8214;DHT22;4148;47.974;7.824;2023-05-07T15:20:37;20.40;99.90
8214;DHT22;4148;47.974;7.824;2023-05-07T15:23:06;20.40;99.90
8214;DHT22;4148;47.974;7.824;2023-05-07T15:25:36;20.30;99.90
8214;DHT22;4148;47.974;7.824;2023-05-07T15:28:04;20.30;99.90
8214;DHT22;4148;47.974;7.824;2023-05-07T15:30:33;20.30;99.90
8214;DHT22;4148;47.974;7.824;2023-05-07T15:33:01;20.20;99.90
8214;DHT22;4148;47.974;7.824;2023-05-07T15:35:30;20.20;99.90
8214;DHT22;4148;47.974;7.824;2023-05-07T15:37:57;20.20;99.90
8214;DHT22;4148;47.974;7.824;2023-05-07T15:40:25;20.20;99.90
8214;DHT22;4148;47.974;7.824;2023-05-07T15:42:55;20.10;99.90
8214;DHT22;4148;47.974;7.824;2023-05-07T15:45:23;20.10;99.90
8214;DHT22;4148;47.974;7.824;2023-05-07T15:47:53;20.10;99.90
8214;DHT22;4148;47.974;7.824;2023-05-07T15:50:20;20.10;99.90
8214;DHT22;4148;47.974;7.824;2023-05-07T15:52:48;20.10;99.90
8214;DHT22;4148;47.974;7.824;2023-05-07T15:55:16;20.10;99.90
8214;DHT22;4148;47.974;7.824;2023-05-07T15:57:47;20.00;99.90
8214;DHT22;4148;47.974;7.824;2023-05-07T16:00:15;20.00;99.90
8214;DHT22;4148;47.974;7.824;2023-05-07T16:02:44;20.00;99.90
8214;DHT22;4148;47.974;7.824;2023-05-07T16:05:13;20.00;99.90
8214;DHT22;4148;47.974;7.824;2023-05-07T16:07:41;19.90;99.90
8214;DHT22;4148;47.974;7.824;2023-05-07T16:10:10;20.00;99.90
8214;DHT22;4148;47.974;7.824;2023-05-07T16:12:38;19.90;99.90
8214;DHT22;4148;47.974;7.824;2023-05-07T16:15:07;19.80;99.90
8214;DHT22;4148;47.974;7.824;2023-05-07T16:17:35;19.80;99.90